Time;durP1;ratioP1;P1;durP2;ratioP2;P2;SDS_P1;SDS_P2;PMS_P1;PMS_P2;Temp;Humidity;BMP_temperature;BMP_pressure;BME280_temperature;BME280_humidity;BME280_pressure;Samples;Min_cycle;Max_cycle;Signal;HPM_P1;HPM_P2
2021/05/05 00:01:20;;;;;;;9.60;5.32;;;410.40;1331.20;;;;;;5073716;28;20037;-70
2021/05/05 00:03:47;;;;;;;12.52;4.97;;;410.40;1331.20;;;;;;5073773;28;20407;-64
2021/05/05 00:06:16;;;;;;;10.27;5.30;;;410.40;1331.20;;;;;;5073772;28;20350;-63
2021/05/05 00:08:43;;;;;;;10.30;6.32;;;410.40;1356.80;;;;;;5073696;28;20385;-63
2021/05/05 00:11:10;;;;;;;10.00;5.10;;;410.30;1356.80;;;;;;5073622;28;20378;-62
2021/05/05 00:13:36;;;;;;;9.35;5.68;;;410.30;1356.80;;;;;;5073936;28;20020;-63
2021/05/05 00:16:04;;;;;;;12.48;5.55;;;410.30;1382.40;;;;;;5073601;28;20400;-63
2021/05/05 00:18:30;;;;;;;8.55;5.60;;;410.30;1382.40;;;;;;5073422;28;20357;-63
2021/05/05 00:20:57;;;;;;;9.52;5.82;;;410.30;1382.40;;;;;;5073684;28;20400;-63
2021/05/05 00:23:24;;;;;;;8.68;5.43;;;410.20;1382.40;;;;;;5073394;28;20398;-63
2021/05/05 00:25:50;;;;;;;8.88;5.45;;;410.20;1382.40;;;;;;5073304;28;20416;-62
2021/05/05 00:28:17;;;;;;;8.10;5.55;;;410.30;1382.40;;;;;;5073321;28;20457;-67
2021/05/05 00:30:43;;;;;;;13.52;5.97;;;410.30;1382.40;;;;;;5073377;28;20417;-63
2021/05/05 00:33:10;;;;;;;9.52;5.57;;;410.20;1382.40;;;;;;5073380;28;20462;-69
2021/05/05 00:35:36;;;;;;;9.55;5.75;;;410.30;1382.40;;;;;;5073655;28;20454;-63
2021/05/05 00:38:03;;;;;;;9.82;5.93;;;410.30;1382.40;;;;;;5073387;28;20349;-63
2021/05/05 00:40:29;;;;;;;9.32;5.50;;;410.30;1382.40;;;;;;5073879;28;20391;-71
2021/05/05 00:42:56;;;;;;;11.93;5.40;;;410.20;1408.00;;;;;;5073314;28;20425;-73
2021/05/05 00:45:22;;;;;;;9.93;5.63;;;410.20;1408.00;;;;;;5073877;28;20021;-65
2021/05/05 00:47:48;;;;;;;10.23;5.47;;;410.10;1433.60;;;;;;5073203;28;20466;-65
2021/05/05 00:50:17;;;;;;;12.15;5.25;;;410.10;1408.00;;;;;;5073186;28;20627;-63
2021/05/05 00:52:44;;;;;;;9.18;5.38;;;410.00;1408.00;;;;;;5073126;28;20474;-72
2021/05/05 00:55:11;;;;;;;11.48;5.50;;;410.00;1408.00;;;;;;5073207;28;20373;-64
2021/05/05 00:57:38;;;;;;;9.70;5.35;;;410.00;1433.60;;;;;;5073457;28;20407;-63
2021/05/05 01:00:05;;;;;;;8.75;5.57;;;410.00;1459.20;;;;;;5073082;28;20381;-62
2021/05/05 01:02:32;;;;;;;14.38;6.65;;;409.90;1459.20;;;;;;5073228;28;20474;-63
2021/05/05 01:05:00;;;;;;;10.27;5.72;;;409.80;1484.80;;;;;;5073091;28;20389;-63
2021/05/05 01:07:27;;;;;;;10.55;5.95;;;409.80;1459.20;;;;;;5073075;28;20488;-63
2021/05/05 01:09:53;;;;;;;8.48;5.53;;;409.70;1484.80;;;;;;5073044;28;20377;-63
2021/05/05 01:12:20;;;;;;;9.15;5.55;;;409.70;1484.80;;;;;;5073325;28;20384;-63
2021/05/05 01:14:46;;;;;;;9.77;5.80;;;409.70;1484.80;;;;;;5071815;28;20400;-63
2021/05/05 01:17:13;;;;;;;14.18;6.38;;;409.70;1484.80;;;;;;5073022;28;20376;-63
2021/05/05 01:19:40;;;;;;;11.90;6.57;;;409.60;1484.80;;;;;;5072885;28;20477;-73
2021/05/05 01:22:06;;;;;;;10.68;6.95;;;409.70;1459.20;;;;;;5072993;28;20342;-63
2021/05/05 01:24:36;;;;;;;11.77;6.78;;;409.60;1484.80;;;;;;5072922;28;20451;-64
2021/05/05 01:27:05;;;;;;;9.20;5.93;;;384.90;1459.20;;;;;;5072989;28;20438;-63
2021/05/05 01:29:32;;;;;;;9.00;6.10;;;384.90;1459.20;;;;;;5073875;28;20447;-63
2021/05/05 01:31:58;;;;;;;9.13;5.93;;;384.90;1459.20;;;;;;5075320;28;20369;-63
2021/05/05 01:34:24;;;;;;;11.52;6.25;;;384.90;1459.20;;;;;;5076826;28;20479;-63
2021/05/05 01:36:51;;;;;;;8.52;5.75;;;384.80;1459.20;;;;;;5076521;28;20437;-63
2021/05/05 01:39:19;;;;;;;11.77;5.93;;;384.80;1459.20;;;;;;5076134;28;20397;-63
2021/05/05 01:41:46;;;;;;;8.73;5.82;;;384.90;1433.60;;;;;;5076672;28;20032;-63
2021/05/05 01:44:13;;;;;;;13.18;6.28;;;409.60;1459.20;;;;;;5076413;28;20484;-63
2021/05/05 01:46:46;;;;;;;9.48;5.80;;;384.90;1459.20;;;;;;5076401;28;20455;-63
2021/05/05 01:49:24;;;;;;;9.18;5.60;;;384.80;1484.80;;;;;;5076637;28;20417;-63
2021/05/05 01:51:51;;;;;;;12.00;5.38;;;384.80;1484.80;;;;;;5075902;28;20400;-64
2021/05/05 01:54:18;;;;;;;11.52;5.68;;;384.80;1459.20;;;;;;5076183;28;20373;-63
2021/05/05 01:56:44;;;;;;;8.90;5.30;;;384.80;1484.80;;;;;;5076091;28;20414;-63
2021/05/05 01:59:11;;;;;;;8.70;5.68;;;384.80;1459.20;;;;;;5076351;28;20338;-67
2021/05/05 02:01:37;;;;;;;9.73;5.93;;;384.70;1484.80;;;;;;5076009;28;20036;-64
2021/05/05 02:04:03;;;;;;;12.18;5.72;;;384.70;1484.80;;;;;;5076070;28;20377;-63
2021/05/05 02:06:30;;;;;;;11.35;5.70;;;384.70;1459.20;;;;;;5076027;28;20464;-65
2021/05/05 02:08:58;;;;;;;9.60;5.22;;;384.70;1459.20;;;;;;5075872;28;20464;-63
2021/05/05 02:11:24;;;;;;;10.98;5.80;;;384.70;1433.60;;;;;;5075882;28;20365;-63
2021/05/05 02:13:51;;;;;;;8.88;5.95;;;384.80;1433.60;;;;;;5075816;28;20347;-64
2021/05/05 02:16:18;;;;;;;10.30;5.97;;;384.70;1459.20;;;;;;5075899;28;20507;-64
2021/05/05 02:18:45;;;;;;;12.48;6.15;;;384.60;1484.80;;;;;;5075739;28;20373;-63
2021/05/05 02:21:11;;;;;;;9.75;5.75;;;384.60;1484.80;;;;;;5075664;28;20030;-63
2021/05/05 02:23:37;;;;;;;10.13;5.35;;;384.50;1484.80;;;;;;5075733;28;20424;-63
2021/05/05 02:26:04;;;;;;;8.63;5.65;;;384.50;1484.80;;;;;;5076152;28;20361;-63
2021/05/05 02:28:31;;;;;;;9.55;5.85;;;384.50;1510.40;;;;;;5075547;28;20444;-66
2021/05/05 02:30:58;;;;;;;12.32;5.70;;;384.40;1510.40;;;;;;5075617;28;20496;-63
2021/05/05 02:33:26;;;;;;;11.65;6.47;;;384.30;1510.40;;;;;;5075767;28;20369;-63
2021/05/05 02:35:52;;;;;;;10.15;6.03;;;384.20;1510.40;;;;;;5075455;28;20358;-63
2021/05/05 02:38:19;;;;;;;8.95;6.00;;;384.20;1536.00;;;;;;5075349;28;20401;-63
2021/05/05 02:40:47;;;;;;;9.10;5.90;;;384.10;1536.00;;;;;;5075312;28;20428;-63
2021/05/05 02:43:14;;;;;;;8.43;4.95;;;384.00;1561.60;;;;;;5075321;28;20373;-64
2021/05/05 02:45:40;;;;;;;8.35;5.00;;;384.10;1536.00;;;;;;5075289;28;20396;-63
2021/05/05 02:48:07;;;;;;;8.10;5.22;;;384.00;1536.00;;;;;;5075180;28;20377;-63
2021/05/05 02:50:33;;;;;;;6.97;4.78;;;384.10;1536.00;;;;;;5075123;28;20031;-63
2021/05/05 02:52:59;;;;;;;9.65;5.05;;;384.10;1536.00;;;;;;5075042;28;20404;-63
2021/05/05 02:55:25;;;;;;;7.25;4.30;;;384.00;1536.00;;;;;;5075312;28;20452;-66
2021/05/05 02:57:51;;;;;;;5.97;4.18;;;384.00;1510.40;;;;;;5075013;28;20385;-62
2021/05/05 03:00:18;;;;;;;11.40;4.63;;;384.00;1510.40;;;;;;5075088;28;20381;-66
2021/05/05 03:02:44;;;;;;;11.77;5.68;;;359.30;1536.00;;;;;;5074989;28;20468;-63
2021/05/05 03:05:11;;;;;;;8.05;4.60;;;359.20;1587.20;;;;;;5074924;28;20377;-66
2021/05/05 03:07:37;;;;;;;10.23;4.72;;;359.20;1561.60;;;;;;5074756;28;20493;-65
2021/05/05 03:10:05;;;;;;;8.02;4.65;;;359.20;1561.60;;;;;;5074744;28;20447;-63
2021/05/05 03:12:31;;;;;;;7.00;4.97;;;359.20;1561.60;;;;;;5074747;28;20392;-63
2021/05/05 03:14:57;;;;;;;10.10;4.35;;;359.10;1561.60;;;;;;5074620;28;20450;-63
2021/05/05 03:17:24;;;;;;;9.23;4.30;;;359.10;1561.60;;;;;;5074633;28;20350;-63
2021/05/05 03:19:51;;;;;;;12.57;4.40;;;359.10;1561.60;;;;;;5074729;28;20357;-66
2021/05/05 03:22:18;;;;;;;6.18;4.00;;;359.10;1536.00;;;;;;5074548;28;20373;-65
2021/05/05 03:24:45;;;;;;;9.85;3.92;;;359.20;1536.00;;;;;;5074445;28;20360;-63
2021/05/05 03:27:11;;;;;;;7.10;4.40;;;359.20;1536.00;;;;;;5074453;28;20099;-63
2021/05/05 03:29:37;;;;;;;6.93;4.25;;;359.20;1536.00;;;;;;5074411;28;20515;-63
2021/05/05 03:32:03;;;;;;;8.95;5.38;;;359.10;1536.00;;;;;;5074264;28;20377;-64
2021/05/05 03:34:29;;;;;;;8.68;4.88;;;359.00;1536.00;;;;;;5074254;28;20428;-65
2021/05/05 03:36:55;;;;;;;11.50;4.55;;;359.00;1536.00;;;;;;5074251;28;20378;-63
2021/05/05 03:39:22;;;;;;;8.25;4.45;;;359.00;1536.00;;;;;;5073854;28;20436;-63
2021/05/05 03:41:48;;;;;;;7.57;4.07;;;358.90;1561.60;;;;;;5074147;28;20438;-63
2021/05/05 03:44:15;;;;;;;12.80;3.88;;;358.90;1561.60;;;;;;5074052;28;20353;-63
2021/05/05 03:46:41;;;;;;;9.00;4.75;;;358.90;1561.60;;;;;;5074637;28;20107;-66
2021/05/05 03:49:08;;;;;;;11.82;4.10;;;358.90;1561.60;;;;;;5073977;28;20413;-65
2021/05/05 03:51:35;;;;;;;10.30;4.40;;;358.90;1561.60;;;;;;5073860;28;20383;-67
2021/05/05 03:54:01;;;;;;;9.85;4.00;;;358.90;1561.60;;;;;;5073665;28;20472;-63
2021/05/05 03:56:27;;;;;;;8.90;4.38;;;358.90;1561.60;;;;;;5073851;28;20371;-64
2021/05/05 03:58:53;;;;;;;18.27;4.38;;;358.80;1561.60;;;;;;5073839;28;20376;-63
2021/05/05 04:01:20;;;;;;;12.38;4.53;;;358.80;1561.60;;;;;;5073979;28;20384;-64
2021/05/05 04:03:46;;;;;;;9.63;4.30;;;358.80;1561.60;;;;;;5073741;28;20354;-63
2021/05/05 04:06:12;;;;;;;11.02;4.05;;;358.80;1561.60;;;;;;5073953;28;20369;-63
2021/05/05 04:08:38;;;;;;;10.38;4.20;;;358.90;1561.60;;;;;;5074292;28;20360;-63
2021/05/05 04:11:04;;;;;;;9.98;4.25;;;358.90;1561.60;;;;;;5073733;28;20419;-64
2021/05/05 04:13:32;;;;;;;8.63;3.97;;;358.90;1561.60;;;;;;5073681;28;20392;-64
2021/05/05 04:16:00;;;;;;;9.27;3.45;;;358.90;1561.60;;;;;;5073532;28;20377;-63
2021/05/05 04:18:27;;;;;;;12.00;4.18;;;358.90;1536.00;;;;;;5072381;28;20438;-63
2021/05/05 04:20:57;;;;;;;7.35;3.65;;;358.90;1536.00;;;;;;5073512;28;20377;-63
2021/05/05 04:23:23;;;;;;;6.97;3.75;;;358.90;1536.00;;;;;;5073482;28;20408;-63
2021/05/05 04:25:49;;;;;;;10.65;4.15;;;358.90;1536.00;;;;;;5073540;28;20405;-66
2021/05/05 04:28:16;;;;;;;9.85;3.85;;;358.90;1536.00;;;;;;5073492;28;20449;-66
2021/05/05 04:30:42;;;;;;;6.90;3.80;;;358.90;1561.60;;;;;;5073496;28;20453;-65
2021/05/05 04:33:08;;;;;;;12.45;4.15;;;358.90;1561.60;;;;;;5073758;28;20464;-63
2021/05/05 04:35:34;;;;;;;13.15;4.95;;;358.90;1561.60;;;;;;5073431;28;20373;-64
2021/05/05 04:38:00;;;;;;;7.93;4.07;;;358.90;1561.60;;;;;;5073200;28;20338;-64
2021/05/05 04:40:26;;;;;;;10.05;4.40;;;358.90;1561.60;;;;;;5073266;28;20451;-64
2021/05/05 04:42:52;;;;;;;7.35;4.30;;;358.90;1587.20;;;;;;5073574;28;20392;-63
2021/05/05 04:45:19;;;;;;;9.48;4.82;;;359.00;1587.20;;;;;;5073315;28;20365;-63
2021/05/05 04:47:45;;;;;;;7.97;4.45;;;359.00;1587.20;;;;;;5073621;28;20368;-64
2021/05/05 04:50:12;;;;;;;10.13;4.90;;;359.00;1587.20;;;;;;5073239;28;20423;-65
2021/05/05 04:52:39;;;;;;;8.75;4.72;;;359.10;1587.20;;;;;;5073336;28;20415;-63
2021/05/05 04:55:07;;;;;;;9.75;4.95;;;359.10;1587.20;;;;;;5073278;28;20361;-63
2021/05/05 04:57:33;;;;;;;10.27;5.03;;;359.20;1587.20;;;;;;5073585;28;20021;-64
2021/05/05 04:59:59;;;;;;;8.80;4.70;;;359.30;1612.80;;;;;;5073114;28;20385;-68
2021/05/05 05:02:25;;;;;;;8.43;4.03;;;384.00;1587.20;;;;;;5073166;28;20369;-65
2021/05/05 05:04:51;;;;;;;7.68;3.90;;;384.10;1561.60;;;;;;5074745;28;20426;-67
2021/05/05 05:07:17;;;;;;;7.57;4.00;;;384.20;1536.00;;;;;;5077162;28;20448;-63
2021/05/05 05:09:43;;;;;;;7.40;3.95;;;384.20;1536.00;;;;;;5077313;28;20389;-63
2021/05/05 05:12:10;;;;;;;5.78;3.80;;;384.30;1536.00;;;;;;5077001;28;20369;-63
2021/05/05 05:14:37;;;;;;;5.88;3.83;;;384.40;1536.00;;;;;;5077014;28;20458;-63
2021/05/05 05:17:04;;;;;;;11.70;4.47;;;384.50;1536.00;;;;;;5076900;28;20099;-64
2021/05/05 05:19:30;;;;;;;9.82;4.10;;;384.50;1561.60;;;;;;5076772;28;20484;-63
2021/05/05 05:21:56;;;;;;;7.43;3.60;;;384.50;1536.00;;;;;;5076862;28;20458;-72
2021/05/05 05:24:22;;;;;;;8.52;3.63;;;384.60;1536.00;;;;;;5076748;28;20365;-63
2021/05/05 05:26:50;;;;;;;7.97;3.97;;;384.70;1536.00;;;;;;5076642;28;20372;-63
2021/05/05 05:29:17;;;;;;;8.02;3.50;;;384.80;1510.40;;;;;;5076647;28;20365;-66
2021/05/05 05:31:43;;;;;;;7.82;3.22;;;384.90;1510.40;;;;;;5076588;28;20456;-63
2021/05/05 05:34:09;;;;;;;10.07;3.97;;;384.90;1484.80;;;;;;5076626;28;20424;-64
2021/05/05 05:36:35;;;;;;;7.82;3.75;;;409.60;1510.40;;;;;;5076549;28;20364;-63
2021/05/05 05:39:02;;;;;;;8.38;3.53;;;409.70;1510.40;;;;;;5076287;28;20449;-64
2021/05/05 05:41:29;;;;;;;10.75;3.80;;;409.80;1484.80;;;;;;5076439;28;20420;-63
2021/05/05 05:43:55;;;;;;;7.45;3.60;;;409.90;1484.80;;;;;;5076369;28;20020;-63
2021/05/05 05:46:21;;;;;;;8.20;3.45;;;410.00;1459.20;;;;;;5076328;28;20446;-63
2021/05/05 05:48:47;;;;;;;7.40;2.72;;;410.00;1408.00;;;;;;5076289;28;20365;-63
2021/05/05 05:51:13;;;;;;;9.73;2.45;;;410.10;1382.40;;;;;;5076292;28;20423;-63
2021/05/05 05:53:40;;;;;;;9.52;2.67;;;410.20;1408.00;;;;;;5076217;28;20384;-63
2021/05/05 05:56:06;;;;;;;7.60;2.83;;;410.30;1408.00;;;;;;5076172;28;20346;-63
2021/05/05 05:58:32;;;;;;;8.25;2.45;;;410.30;1382.40;;;;;;5076068;28;20365;-63
2021/05/05 06:00:58;;;;;;;8.32;2.65;;;410.40;1382.40;;;;;;5076057;28;20453;-63
2021/05/05 06:03:25;;;;;;;9.23;2.40;;;410.50;1382.40;;;;;;5076040;28;20365;-62
2021/05/05 06:05:51;;;;;;;9.63;2.85;;;435.20;1382.40;;;;;;5076066;28;20346;-62
2021/05/05 06:08:19;;;;;;;12.48;2.83;;;435.20;1382.40;;;;;;5075989;28;20595;-62
2021/05/05 06:14:08;;;;;;;11.10;2.35;;;435.50;1382.40;;;;;;5075797;28;20027;-67
2021/05/05 06:16:34;;;;;;;9.13;2.50;;;435.50;1356.80;;;;;;5075317;28;20368;-63
2021/05/05 06:19:00;;;;;;;5.10;2.67;;;435.60;1331.20;;;;;;5075635;28;20381;-62
2021/05/05 06:21:27;;;;;;;8.32;2.53;;;435.80;1305.60;;;;;;5075536;28;20421;-73
2021/05/05 06:23:53;;;;;;;6.72;2.40;;;435.90;1280.00;;;;;;5075868;28;20070;-64
2021/05/05 06:26:19;;;;;;;6.30;2.63;;;436.10;1280.00;;;;;;5075697;28;20370;-73
2021/05/05 06:28:45;;;;;;;5.30;2.50;;;460.80;1280.00;;;;;;5075471;28;20391;-63
2021/05/05 06:31:12;;;;;;;5.25;2.42;;;460.90;1280.00;;;;;;5075887;28;20027;-75
2021/05/05 06:33:38;;;;;;;6.78;2.42;;;461.10;1280.00;;;;;;5075469;28;20496;-72
2021/05/05 06:36:05;;;;;;;7.60;2.47;;;461.20;1254.40;;;;;;5076033;28;20360;-63
2021/05/05 06:38:31;;;;;;;11.15;2.65;;;461.30;1254.40;;;;;;5075257;28;20435;-68
2021/05/05 06:40:57;;;;;;;8.80;2.40;;;461.50;1254.40;;;;;;5075194;28;20381;-73
2021/05/05 06:43:23;;;;;;;8.88;2.40;;;461.60;1203.20;;;;;;5075408;28;20356;-63
2021/05/05 06:45:49;;;;;;;5.85;2.83;;;461.70;1203.20;;;;;;5075083;28;20451;-73
2021/05/05 06:48:15;;;;;;;8.20;2.58;;;486.50;1177.60;;;;;;5075458;28;20404;-63
2021/05/05 06:50:42;;;;;;;5.47;2.17;;;486.60;1177.60;;;;;;5075016;28;20411;-67
2021/05/05 06:53:08;;;;;;;8.55;2.42;;;486.50;1152.00;;;;;;5075144;28;20433;-68
2021/05/05 06:55:37;;;;;;;7.78;2.20;;;486.70;1126.40;;;;;;5075090;28;20461;-69
2021/05/05 06:58:04;;;;;;;9.35;2.33;;;486.80;1126.40;;;;;;5075062;28;20096;-66
2021/05/05 07:00:31;;;;;;;5.80;2.03;;;486.80;1126.40;;;;;;5074880;28;20354;-70
2021/05/05 07:02:56;;;;;;;6.07;1.67;;;486.90;1100.80;;;;;;5075037;28;20469;-64
2021/05/05 07:05:23;;;;;;;5.90;2.20;;;487.00;1100.80;;;;;;5075194;28;20056;-71
2021/05/05 07:07:49;;;;;;;10.65;2.58;;;487.10;1075.20;;;;;;5075188;28;20358;-73
2021/05/05 07:10:15;;;;;;;8.38;2.33;;;487.10;1075.20;;;;;;5074766;28;20387;-64
2021/05/05 07:12:41;;;;;;;6.90;2.47;;;487.20;1024.00;;;;;;5074677;28;20357;-65
2021/05/05 07:15:08;;;;;;;4.35;1.88;;;487.20;1024.00;;;;;;5074670;28;20370;-64
2021/05/05 07:17:34;;;;;;;9.70;2.17;;;487.30;1024.00;;;;;;5074607;28;20472;-65
2021/05/05 07:20:01;;;;;;;8.93;2.38;;;512.00;998.40;;;;;;5074562;28;20354;-64
2021/05/05 07:22:27;;;;;;;9.93;2.25;;;512.10;998.40;;;;;;5075116;28;20013;-65
2021/05/05 07:24:53;;;;;;;6.03;2.03;;;512.20;998.40;;;;;;5074718;28;20017;-72
2021/05/05 07:27:19;;;;;;;8.32;1.90;;;512.30;998.40;;;;;;5073955;28;20404;-64
2021/05/05 07:29:45;;;;;;;4.63;1.65;;;512.30;972.80;;;;;;5074378;28;20361;-60
2021/05/05 07:32:12;;;;;;;7.05;2.20;;;512.40;998.40;;;;;;5074311;28;20513;-60
2021/05/05 07:34:42;;;;;;;4.38;1.20;;;512.60;972.80;;;;;;5074631;28;20068;-65
2021/05/05 07:37:14;;;;;;;7.50;2.05;;;512.60;947.20;;;;;;5074295;28;20412;-61
2021/05/05 07:43:18;;;;;;;9.00;1.67;;;512.80;947.20;;;;;;5074816;28;20381;-60
2021/05/05 07:50:51;;;;;;;10.80;1.88;;;537.60;921.60;;;;;;5074126;28;20450;-59
2021/05/05 07:53:17;;;;;;;6.15;1.67;;;537.60;972.80;;;;;;5074177;28;20522;-62
2021/05/05 07:55:43;;;;;;;7.30;1.40;;;537.60;896.00;;;;;;5073825;28;20401;-67
2021/05/05 07:58:12;;;;;;;4.45;1.55;;;537.60;921.60;;;;;;5074201;28;20023;-61
2021/05/05 08:00:39;;;;;;;4.45;1.88;;;537.70;921.60;;;;;;5073796;28;20373;-61
2021/05/05 08:03:06;;;;;;;5.43;1.50;;;537.70;921.60;;;;;;5073888;28;20487;-63
2021/05/05 08:05:32;;;;;;;4.97;1.40;;;537.80;947.20;;;;;;5073721;28;20377;-61
2021/05/05 08:07:58;;;;;;;4.28;0.95;;;537.90;921.60;;;;;;5073793;28;20361;-64
2021/05/05 08:10:26;;;;;;;7.53;1.65;;;537.80;921.60;;;;;;5073964;28;20428;-60
2021/05/05 08:12:52;;;;;;;7.45;1.23;;;537.90;921.60;;;;;;5073659;28;20021;-67
2021/05/05 08:15:18;;;;;;;2.72;0.95;;;537.90;921.60;;;;;;5073862;28;20365;-60
2021/05/05 08:17:46;;;;;;;4.65;1.38;;;538.00;921.60;;;;;;5073604;28;20403;-60
2021/05/05 08:20:13;;;;;;;4.15;1.98;;;538.10;921.60;;;;;;5073463;28;20358;-62
2021/05/05 08:22:39;;;;;;;7.70;1.90;;;538.10;896.00;;;;;;5073491;28;20411;-68
2021/05/05 08:25:07;;;;;;;5.07;1.42;;;538.10;870.40;;;;;;5073726;28;20364;-68
2021/05/05 08:27:33;;;;;;;6.75;1.40;;;538.20;896.00;;;;;;5073276;28;20472;-63
2021/05/05 08:29:59;;;;;;;24.55;2.03;;;538.20;896.00;;;;;;5073329;28;20380;-68
2021/05/05 08:32:25;;;;;;;5.60;1.52;;;538.20;844.80;;;;;;5074082;28;20069;-67
2021/05/05 08:34:51;;;;;;;11.52;1.48;;;538.20;870.40;;;;;;5073455;28;20412;-66
2021/05/05 08:37:17;;;;;;;5.75;1.27;;;538.20;870.40;;;;;;5073336;28;20052;-67
2021/05/05 08:39:43;;;;;;;7.13;1.45;;;538.30;870.40;;;;;;5073046;28;20377;-61
2021/05/05 08:42:09;;;;;;;7.88;1.60;;;538.30;870.40;;;;;;5072133;28;20378;-68
2021/05/05 08:44:35;;;;;;;4.82;1.30;;;538.40;896.00;;;;;;5073210;28;20417;-60
2021/05/05 08:47:03;;;;;;;4.53;1.23;;;563.20;947.20;;;;;;5072208;28;20354;-60
2021/05/05 08:49:31;;;;;;;7.88;1.52;;;563.20;947.20;;;;;;5073151;28;20433;-61
2021/05/05 08:52:00;;;;;;;3.67;1.20;;;563.20;947.20;;;;;;5073128;28;20354;-60
2021/05/05 08:54:26;;;;;;;4.03;1.30;;;563.20;896.00;;;;;;5073337;28;20361;-60
2021/05/05 08:56:52;;;;;;;6.60;1.23;;;563.20;896.00;;;;;;5073054;28;20480;-61
2021/05/05 08:59:18;;;;;;;22.63;1.98;;;563.20;896.00;;;;;;5073260;28;20361;-66
2021/05/05 09:01:45;;;;;;;8.65;1.60;;;563.20;896.00;;;;;;5072991;28;20357;-72
2021/05/05 09:04:11;;;;;;;7.75;1.40;;;563.20;896.00;;;;;;5073416;28;20476;-68
2021/05/05 09:06:52;;;;;;;3.60;1.00;;;563.30;896.00;;;;;;5073155;28;20350;-62
2021/05/05 09:09:32;;;;;;;6.47;1.40;;;563.40;921.60;;;;;;5073116;28;20449;-71
2021/05/05 09:12:10;;;;;;;5.97;1.55;;;563.20;870.40;;;;;;5072957;28;20365;-67
2021/05/05 09:14:48;;;;;;;6.68;1.70;;;538.50;844.80;;;;;;5072967;28;20373;-67
2021/05/05 09:17:26;;;;;;;7.68;1.50;;;563.20;896.00;;;;;;5073042;28;20373;-67
2021/05/05 09:20:05;;;;;;;12.10;5.13;;;563.30;921.60;;;;;;5071656;28;20115;-68
2021/05/05 09:22:52;;;;;;;5.25;1.60;;;563.40;972.80;;;;;;5072933;28;20339;-68
2021/05/05 09:25:30;;;;;;;17.45;2.75;;;563.40;921.60;;;;;;5073265;28;20342;-68
2021/05/05 09:28:29;;;;;;;4.93;1.10;;;563.60;896.00;;;;;;5073264;28;20357;-67
2021/05/05 09:31:09;;;;;;;4.93;1.40;;;563.60;947.20;;;;;;5072610;28;20116;-68
2021/05/05 09:33:37;;;;;;;2.55;1.20;;;563.50;921.60;;;;;;5071676;28;20361;-68
2021/05/05 09:36:09;;;;;;;4.07;1.33;;;563.60;896.00;;;;;;5072768;28;20396;-68
2021/05/05 09:38:49;;;;;;;3.08;1.10;;;563.60;921.60;;;;;;5072562;28;20441;-67
2021/05/05 09:41:30;;;;;;;4.22;1.15;;;563.60;921.60;;;;;;5072732;28;20415;-67
2021/05/05 09:44:07;;;;;;;5.93;1.48;;;563.70;870.40;;;;;;5071580;28;20377;-67
2021/05/05 09:46:42;;;;;;;3.97;1.10;;;563.70;870.40;;;;;;5072754;28;20433;-67
2021/05/05 09:49:22;;;;;;;4.45;1.10;;;563.60;870.40;;;;;;5073399;28;20404;-73
2021/05/05 09:51:50;;;;;;;9.82;1.27;;;563.60;921.60;;;;;;5075655;28;20468;-68
2021/05/05 09:54:39;;;;;;;7.65;1.20;;;563.50;870.40;;;;;;5076234;28;20404;-67
2021/05/05 09:57:25;;;;;;;3.38;1.30;;;563.50;896.00;;;;;;5076242;28;20361;-67
2021/05/05 10:00:10;;;;;;;3.38;1.20;;;563.50;896.00;;;;;;5076096;28;20381;-67
2021/05/05 10:02:46;;;;;;;5.47;1.48;;;563.60;921.60;;;;;;5076214;28;20369;-67
2021/05/05 10:05:24;;;;;;;4.32;1.10;;;563.70;921.60;;;;;;5076421;28;20361;-68
2021/05/05 10:07:59;;;;;;;6.35;2.15;;;563.80;947.20;;;;;;5076137;28;20373;-67
2021/05/05 10:10:33;;;;;;;2.60;1.20;;;563.80;921.60;;;;;;5075993;28;20400;-67
2021/05/05 10:13:03;;;;;;;7.72;1.70;;;563.80;870.40;;;;;;5075948;28;20377;-68
2021/05/05 10:15:31;;;;;;;7.80;1.45;;;563.70;896.00;;;;;;5075756;28;20369;-67
2021/05/05 10:17:58;;;;;;;8.30;1.45;;;563.70;896.00;;;;;;5075770;28;20398;-67
2021/05/05 10:20:27;;;;;;;5.50;1.65;;;563.70;870.40;;;;;;5075723;28;20377;-72
2021/05/05 10:22:56;;;;;;;9.15;1.45;;;563.70;870.40;;;;;;5074502;28;20357;-73
2021/05/05 10:25:23;;;;;;;4.60;1.13;;;563.80;896.00;;;;;;5075682;28;20380;-69
2021/05/05 10:27:50;;;;;;;7.85;1.20;;;563.80;870.40;;;;;;5075688;28;20360;-76
2021/05/05 10:30:21;;;;;;;9.18;1.40;;;563.80;896.00;;;;;;5075657;28;20417;-63
2021/05/05 10:32:47;;;;;;;3.88;1.38;;;563.80;896.00;;;;;;5075632;28;20361;-67
2021/05/05 10:35:16;;;;;;;6.55;1.20;;;563.90;896.00;;;;;;5075469;28;20368;-65
2021/05/05 10:37:46;;;;;;;6.90;1.55;;;563.90;921.60;;;;;;5075793;28;20406;-69
2021/05/05 10:40:19;;;;;;;5.70;1.20;;;563.90;870.40;;;;;;5075643;28;20370;-67
2021/05/05 10:43:02;;;;;;;3.50;1.83;;;564.00;921.60;;;;;;5075468;28;20496;-68
2021/05/05 10:45:30;;;;;;;6.55;3.10;;;564.10;896.00;;;;;;5075282;28;20373;-74
2021/05/05 10:48:07;;;;;;;3.72;1.42;;;564.10;921.60;;;;;;5075476;28;20416;-73
2021/05/05 10:50:50;;;;;;;27.42;22.70;;;564.10;921.60;;;;;;5075111;28;20365;-73
2021/05/05 10:53:17;;;;;;;12.77;1.40;;;588.80;896.00;;;;;;5074965;28;20372;-73
2021/05/05 10:55:47;;;;;;;6.03;1.15;;;564.10;896.00;;;;;;5075014;28;20479;-72
2021/05/05 10:58:19;;;;;;;7.95;1.67;;;588.80;921.60;;;;;;5074867;28;20396;-68
2021/05/05 11:00:57;;;;;;;4.60;1.40;;;588.80;921.60;;;;;;5073489;28;20377;-68
2021/05/05 11:03:49;;;;;;;4.80;1.00;;;588.80;921.60;;;;;;5073816;28;20056;-69
2021/05/05 11:06:34;;;;;;;8.68;1.58;;;588.90;896.00;;;;;;5074720;28;20392;-68
2021/05/05 11:09:10;;;;;;;5.07;1.17;;;589.00;947.20;;;;;;5074833;28;20028;-68
2021/05/05 11:11:41;;;;;;;3.50;1.25;;;589.10;870.40;;;;;;5074751;28;20357;-68
2021/05/05 11:14:08;;;;;;;9.10;1.52;;;589.10;921.60;;;;;;5073457;28;20365;-68
2021/05/05 11:17:06;;;;;;;10.45;1.60;;;589.20;921.60;;;;;;5074856;28;20403;-68
2021/05/05 11:19:40;;;;;;;8.13;1.35;;;589.30;896.00;;;;;;5062430;28;20400;-68
2021/05/05 11:22:19;;;;;;;5.63;0.93;;;589.30;870.40;;;;;;5074621;28;20436;-67
2021/05/05 11:24:47;;;;;;;8.68;1.85;;;589.30;870.40;;;;;;5074499;28;20343;-68
2021/05/05 11:27:14;;;;;;;3.33;1.08;;;589.30;844.80;;;;;;5073214;28;20364;-68
2021/05/05 11:29:54;;;;;;;6.72;1.50;;;589.30;870.40;;;;;;5074643;28;20372;-68
2021/05/05 11:32:24;;;;;;;6.03;1.77;;;589.40;844.80;;;;;;5074404;28;20368;-68
2021/05/05 11:34:51;;;;;;;7.28;2.17;;;589.50;870.40;;;;;;5074268;28;20469;-68
2021/05/05 11:37:26;;;;;;;6.32;1.67;;;589.60;870.40;;;;;;5074148;28;20393;-72
2021/05/05 11:40:03;;;;;;;7.97;1.10;;;589.60;844.80;;;;;;5073763;28;20044;-68
2021/05/05 11:42:33;;;;;;;2.97;0.90;;;589.60;844.80;;;;;;5074057;28;20346;-72
2021/05/05 11:45:14;;;;;;;6.63;1.10;;;589.50;819.20;;;;;;5074520;28;20343;-72
2021/05/05 11:47:42;;;;;;;13.90;1.70;;;589.30;819.20;;;;;;5074007;28;20403;-67
2021/05/05 11:50:10;;;;;;;7.75;1.17;;;589.40;870.40;;;;;;5073758;28;20479;-69
2021/05/05 11:52:39;;;;;;;9.23;1.50;;;589.50;819.20;;;;;;5073840;28;20335;-68
2021/05/05 11:55:10;;;;;;;9.82;1.42;;;589.60;819.20;;;;;;5074333;28;20334;-70
2021/05/05 11:57:39;;;;;;;12.88;1.35;;;589.70;844.80;;;;;;5074327;28;20405;-68
2021/05/05 12:00:33;;;;;;;19.45;2.28;;;614.40;844.80;;;;;;5073633;28;20492;-68
2021/05/05 12:03:02;;;;;;;5.97;1.10;;;614.40;793.60;;;;;;5073694;28;20389;-68
2021/05/05 12:05:36;;;;;;;8.85;1.15;;;589.70;768.00;;;;;;5072311;28;20019;-68
2021/05/05 12:08:06;;;;;;;13.02;1.10;;;589.70;793.60;;;;;;5073563;28;20373;-70
2021/05/05 12:10:44;;;;;;;42.83;5.03;;;589.70;793.60;;;;;;5072329;28;20373;-70
2021/05/05 12:13:13;;;;;;;8.90;1.40;;;589.70;819.20;;;;;;5073373;28;20354;-72
2021/05/05 12:15:46;;;;;;;3.58;1.05;;;589.70;819.20;;;;;;5073620;28;20372;-68
2021/05/05 12:18:14;;;;;;;4.25;1.45;;;614.40;819.20;;;;;;5073515;28;20346;-68
2021/05/05 12:20:41;;;;;;;3.78;1.45;;;614.40;844.80;;;;;;5073342;28;20384;-68
2021/05/05 12:23:07;;;;;;;5.63;1.45;;;614.50;768.00;;;;;;5073658;28;20017;-68
2021/05/05 12:25:33;;;;;;;6.72;1.65;;;614.60;844.80;;;;;;5074438;28;20318;-68
2021/05/05 12:28:25;;;;;;;3.50;1.35;;;614.60;819.20;;;;;;5073536;28;20416;-68
2021/05/05 12:30:56;;;;;;;5.65;1.33;;;614.70;768.00;;;;;;5070701;28;20453;-68
2021/05/05 12:33:43;;;;;;;7.72;1.73;;;614.70;768.00;;;;;;5073505;28;20405;-68
2021/05/05 12:36:18;;;;;;;5.13;1.48;;;614.70;793.60;;;;;;5073814;28;20362;-68
2021/05/05 12:38:47;;;;;;;19.13;2.10;;;614.70;742.40;;;;;;5073191;28;20385;-68